sensor_id;sensor_type;location;lat;lon;timestamp;pressure;altitude;pressure_sealevel;temperature;humidity
62779;BME280;48821;48.796;2.396;2023-02-21T00:00:23;102152.03;;;7.59;63.21
62779;BME280;48821;48.796;2.396;2023-02-21T00:01:53;102156.41;;;7.57;63.60
62779;BME280;48821;48.796;2.396;2023-02-21T00:03:23;102153.78;;;7.57;63.66
62779;BME280;48821;48.796;2.396;2023-02-21T00:04:53;102159.00;;;7.56;63.03
62779;BME280;48821;48.796;2.396;2023-02-21T00:06:23;102153.78;;;7.54;63.23
62779;BME280;48821;48.796;2.396;2023-02-21T00:07:53;102157.28;;;7.53;63.16
62779;BME280;48821;48.796;2.396;2023-02-21T00:09:23;102171.22;;;7.52;63.76
62779;BME280;48821;48.796;2.396;2023-02-21T00:10:53;102171.22;;;7.50;63.89
62779;BME280;48821;48.796;2.396;2023-02-21T00:12:23;102163.34;;;7.49;63.76
62779;BME280;48821;48.796;2.396;2023-02-21T00:13:53;102161.63;;;7.48;63.26
62779;BME280;48821;48.796;2.396;2023-02-21T00:15:22;102162.47;;;7.47;63.45
62779;BME280;48821;48.796;2.396;2023-02-21T00:16:51;102158.13;;;7.46;63.43
62779;BME280;48821;48.796;2.396;2023-02-21T00:18:21;102159.00;;;7.45;63.22
62779;BME280;48821;48.796;2.396;2023-02-21T00:19:51;102152.88;;;7.44;63.29
62779;BME280;48821;48.796;2.396;2023-02-21T00:21:23;102147.66;;;7.42;63.69
62779;BME280;48821;48.796;2.396;2023-02-21T00:22:52;102158.09;;;7.41;63.66
62779;BME280;48821;48.796;2.396;2023-02-21T00:24:22;102158.97;;;7.41;64.06
62779;BME280;48821;48.796;2.396;2023-02-21T00:25:52;102157.25;;;7.40;63.89
62779;BME280;48821;48.796;2.396;2023-02-21T00:27:24;102154.59;;;7.39;63.76
62779;BME280;48821;48.796;2.396;2023-02-21T00:28:54;102154.59;;;7.37;63.48
62779;BME280;48821;48.796;2.396;2023-02-21T00:30:24;102148.50;;;7.37;63.58
62779;BME280;48821;48.796;2.396;2023-02-21T00:31:54;102147.63;;;7.36;63.97
62779;BME280;48821;48.796;2.396;2023-02-21T00:33:24;102151.97;;;7.34;63.78
62779;BME280;48821;48.796;2.396;2023-02-21T00:34:54;102141.50;;;7.32;63.70
62779;BME280;48821;48.796;2.396;2023-02-21T00:36:24;102135.41;;;7.32;63.99
62779;BME280;48821;48.796;2.396;2023-02-21T00:37:54;102137.13;;;7.31;63.79
62779;BME280;48821;48.796;2.396;2023-02-21T00:39:24;102136.25;;;7.31;63.60
62779;BME280;48821;48.796;2.396;2023-02-21T00:40:54;102134.53;;;7.30;63.82
62779;BME280;48821;48.796;2.396;2023-02-21T00:42:25;102131.03;;;7.28;63.93
62779;BME280;48821;48.796;2.396;2023-02-21T00:43:54;102125.81;;;7.28;63.66
62779;BME280;48821;48.796;2.396;2023-02-21T00:45:25;102124.94;;;7.27;63.90
62779;BME280;48821;48.796;2.396;2023-02-21T00:46:55;102126.66;;;7.27;63.79
62779;BME280;48821;48.796;2.396;2023-02-21T00:48:25;102119.69;;;7.24;63.84
62779;BME280;48821;48.796;2.396;2023-02-21T00:49:54;102120.56;;;7.23;63.85
62779;BME280;48821;48.796;2.396;2023-02-21T00:51:24;102117.94;;;7.22;63.66
62779;BME280;48821;48.796;2.396;2023-02-21T00:52:54;102117.94;;;7.22;63.74
62779;BME280;48821;48.796;2.396;2023-02-21T00:54:24;102110.97;;;7.20;63.96
62779;BME280;48821;48.796;2.396;2023-02-21T00:55:54;102113.56;;;7.20;63.71
62779;BME280;48821;48.796;2.396;2023-02-21T00:57:24;102100.47;;;7.19;63.62
62779;BME280;48821;48.796;2.396;2023-02-21T00:58:54;102092.63;;;7.17;64.07
62779;BME280;48821;48.796;2.396;2023-02-21T01:00:24;102099.59;;;7.17;64.17
62779;BME280;48821;48.796;2.396;2023-02-21T01:01:54;102100.50;;;7.16;63.98
62779;BME280;48821;48.796;2.396;2023-02-21T01:03:23;102102.22;;;7.15;63.93
62779;BME280;48821;48.796;2.396;2023-02-21T01:04:54;102099.59;;;7.14;63.75
62779;BME280;48821;48.796;2.396;2023-02-21T01:06:24;102101.34;;;7.13;64.15
62779;BME280;48821;48.796;2.396;2023-02-21T01:07:54;102100.47;;;7.11;63.33
62779;BME280;48821;48.796;2.396;2023-02-21T01:09:24;102107.44;;;7.11;64.01
62779;BME280;48821;48.796;2.396;2023-02-21T01:10:54;102108.31;;;7.08;64.11
62779;BME280;48821;48.796;2.396;2023-02-21T01:12:24;102096.09;;;7.05;63.76
62779;BME280;48821;48.796;2.396;2023-02-21T01:13:54;102104.81;;;7.06;63.70
62779;BME280;48821;48.796;2.396;2023-02-21T01:15:24;102092.59;;;7.03;63.78
62779;BME280;48821;48.796;2.396;2023-02-21T01:16:54;102100.44;;;7.03;64.13
62779;BME280;48821;48.796;2.396;2023-02-21T01:18:24;102098.69;;;7.02;63.49
62779;BME280;48821;48.796;2.396;2023-02-21T01:19:54;102097.81;;;7.00;63.91
62779;BME280;48821;48.796;2.396;2023-02-21T01:21:24;102096.94;;;7.00;64.28
62779;BME280;48821;48.796;2.396;2023-02-21T01:22:54;102099.53;;;7.00;64.13
62779;BME280;48821;48.796;2.396;2023-02-21T01:24:24;102101.28;;;6.97;64.25
62779;BME280;48821;48.796;2.396;2023-02-21T01:25:54;102097.78;;;6.97;63.69
62779;BME280;48821;48.796;2.396;2023-02-21T01:27:24;102093.44;;;6.96;64.19
62779;BME280;48821;48.796;2.396;2023-02-21T01:28:54;102092.56;;;6.95;64.03
62779;BME280;48821;48.796;2.396;2023-02-21T01:30:24;102093.41;;;6.94;63.67
62779;BME280;48821;48.796;2.396;2023-02-21T01:31:54;102088.19;;;6.94;64.01
62779;BME280;48821;48.796;2.396;2023-02-21T01:33:24;102087.31;;;6.92;63.79
62779;BME280;48821;48.796;2.396;2023-02-21T01:34:54;102083.81;;;6.92;63.99
62779;BME280;48821;48.796;2.396;2023-02-21T01:36:25;102080.34;;;6.91;64.06
62779;BME280;48821;48.796;2.396;2023-02-21T01:37:56;102089.06;;;6.90;63.56
62779;BME280;48821;48.796;2.396;2023-02-21T01:39:26;102079.44;;;6.89;64.27
62779;BME280;48821;48.796;2.396;2023-02-21T01:40:56;102082.94;;;6.88;64.02
62779;BME280;48821;48.796;2.396;2023-02-21T01:42:26;102072.47;;;6.86;64.05
62779;BME280;48821;48.796;2.396;2023-02-21T01:44:02;102078.56;;;6.87;64.29
62779;BME280;48821;48.796;2.396;2023-02-21T01:45:44;102082.06;;;6.86;64.29
62779;BME280;48821;48.796;2.396;2023-02-21T01:47:15;102075.09;;;6.85;64.34
62779;BME280;48821;48.796;2.396;2023-02-21T01:48:46;102078.59;;;6.84;64.14
62779;BME280;48821;48.796;2.396;2023-02-21T01:51:53;102066.38;;;6.81;64.34
62779;BME280;48821;48.796;2.396;2023-02-21T01:53:25;102068.97;;;6.80;64.04
62779;BME280;48821;48.796;2.396;2023-02-21T01:54:55;102068.97;;;6.80;63.94
62779;BME280;48821;48.796;2.396;2023-02-21T01:56:26;102063.75;;;6.78;63.94
62779;BME280;48821;48.796;2.396;2023-02-21T01:57:56;102068.09;;;6.78;64.34
62779;BME280;48821;48.796;2.396;2023-02-21T01:59:27;102063.72;;;6.77;63.99
62779;BME280;48821;48.796;2.396;2023-02-21T02:00:57;102064.59;;;6.75;64.25
62779;BME280;48821;48.796;2.396;2023-02-21T02:02:32;102072.44;;;6.74;64.40
62779;BME280;48821;48.796;2.396;2023-02-21T02:04:03;102073.28;;;6.74;64.13
62779;BME280;48821;48.796;2.396;2023-02-21T02:05:33;102070.69;;;6.73;64.02
62779;BME280;48821;48.796;2.396;2023-02-21T02:07:05;102072.41;;;6.72;63.93
62779;BME280;48821;48.796;2.396;2023-02-21T02:08:35;102066.31;;;6.70;64.13
62779;BME280;48821;48.796;2.396;2023-02-21T02:10:07;102070.66;;;6.70;64.21
62779;BME280;48821;48.796;2.396;2023-02-21T02:15:30;102058.44;;;6.67;64.48
62779;BME280;48821;48.796;2.396;2023-02-21T02:16:59;102059.34;;;6.66;64.22
62779;BME280;48821;48.796;2.396;2023-02-21T02:20:13;102056.69;;;6.64;64.12
62779;BME280;48821;48.796;2.396;2023-02-21T02:21:49;102061.06;;;6.64;64.31
62779;BME280;48821;48.796;2.396;2023-02-21T02:24:59;102061.03;;;6.62;64.14
62779;BME280;48821;48.796;2.396;2023-02-21T02:27:53;102057.56;;;6.62;64.13
62779;BME280;48821;48.796;2.396;2023-02-21T02:29:39;102055.81;;;6.61;63.80
62779;BME280;48821;48.796;2.396;2023-02-21T02:35:21;102051.44;;;6.55;64.07
62779;BME280;48821;48.796;2.396;2023-02-21T02:36:50;102044.47;;;6.54;64.48
62779;BME280;48821;48.796;2.396;2023-02-21T02:38:25;102042.72;;;6.55;64.00
62779;BME280;48821;48.796;2.396;2023-02-21T02:39:59;102044.47;;;6.54;64.05
62779;BME280;48821;48.796;2.396;2023-02-21T02:41:37;102037.50;;;6.53;63.96
62779;BME280;48821;48.796;2.396;2023-02-21T02:44:41;102031.38;;;6.51;64.21
62779;BME280;48821;48.796;2.396;2023-02-21T02:46:08;102025.28;;;6.50;64.45
62779;BME280;48821;48.796;2.396;2023-02-21T02:47:26;102025.28;;;6.50;64.14
62779;BME280;48821;48.796;2.396;2023-02-21T02:48:43;102027.03;;;6.50;64.02
62779;BME280;48821;48.796;2.396;2023-02-21T02:49:58;102024.41;;;6.48;64.33
62779;BME280;48821;48.796;2.396;2023-02-21T02:51:12;102021.81;;;6.48;64.02
62779;BME280;48821;48.796;2.396;2023-02-21T02:52:24;102022.66;;;6.47;63.91
62779;BME280;48821;48.796;2.396;2023-02-21T02:53:36;102031.38;;;6.48;64.38
62779;BME280;48821;48.796;2.396;2023-02-21T02:55:03;102022.66;;;6.47;64.19
62779;BME280;48821;48.796;2.396;2023-02-21T02:56:15;102026.16;;;6.46;64.08
62779;BME280;48821;48.796;2.396;2023-02-21T02:57:29;102026.16;;;6.46;64.00
62779;BME280;48821;48.796;2.396;2023-02-21T02:58:50;102024.38;;;6.45;64.09
62779;BME280;48821;48.796;2.396;2023-02-21T03:00:04;102025.28;;;6.44;64.00
62779;BME280;48821;48.796;2.396;2023-02-21T03:08:45;102012.16;;;6.38;64.45
62779;BME280;48821;48.796;2.396;2023-02-21T03:11:20;102010.44;;;6.37;63.88
62779;BME280;48821;48.796;2.396;2023-02-21T03:12:40;102011.28;;;6.37;64.12
62779;BME280;48821;48.796;2.396;2023-02-21T03:14:11;102000.84;;;6.36;64.27
62779;BME280;48821;48.796;2.396;2023-02-21T03:15:27;102002.56;;;6.35;64.45
62779;BME280;48821;48.796;2.396;2023-02-21T03:16:47;101993.84;;;6.35;64.22
62779;BME280;48821;48.796;2.396;2023-02-21T03:18:33;101997.34;;;6.34;64.29
62779;BME280;48821;48.796;2.396;2023-02-21T03:19:47;102005.19;;;6.34;64.42
62779;BME280;48821;48.796;2.396;2023-02-21T03:21:04;101999.09;;;6.33;64.39
62779;BME280;48821;48.796;2.396;2023-02-21T03:22:20;102003.41;;;6.33;64.53
62779;BME280;48821;48.796;2.396;2023-02-21T03:23:33;101997.34;;;6.32;64.35
62779;BME280;48821;48.796;2.396;2023-02-21T03:24:47;101998.22;;;6.31;64.13
62779;BME280;48821;48.796;2.396;2023-02-21T03:26:03;102006.91;;;6.32;64.14
62779;BME280;48821;48.796;2.396;2023-02-21T03:27:19;102009.50;;;6.30;64.16
62779;BME280;48821;48.796;2.396;2023-02-21T03:28:33;102006.03;;;6.29;64.12
62779;BME280;48821;48.796;2.396;2023-02-21T03:29:46;102008.66;;;6.29;64.37
62779;BME280;48821;48.796;2.396;2023-02-21T03:30:58;102005.16;;;6.29;64.13
62779;BME280;48821;48.796;2.396;2023-02-21T03:32:14;102002.53;;;6.27;64.23
62779;BME280;48821;48.796;2.396;2023-02-21T03:33:27;102000.78;;;6.26;64.35
62779;BME280;48821;48.796;2.396;2023-02-21T03:34:41;101999.06;;;6.27;64.11
62779;BME280;48821;48.796;2.396;2023-02-21T03:35:53;102003.41;;;6.26;64.43
62779;BME280;48821;48.796;2.396;2023-02-21T03:37:17;101991.19;;;6.25;64.50
62779;BME280;48821;48.796;2.396;2023-02-21T03:38:29;101999.91;;;6.24;64.50
62779;BME280;48821;48.796;2.396;2023-02-21T03:39:41;102000.75;;;6.25;64.27
62779;BME280;48821;48.796;2.396;2023-02-21T03:40:52;101999.03;;;6.24;64.56
62779;BME280;48821;48.796;2.396;2023-02-21T03:42:04;101996.44;;;6.24;64.51
62779;BME280;48821;48.796;2.396;2023-02-21T03:43:16;101997.28;;;6.23;64.49
62779;BME280;48821;48.796;2.396;2023-02-21T03:44:27;101998.16;;;6.23;64.29
62779;BME280;48821;48.796;2.396;2023-02-21T03:45:39;101992.06;;;6.21;64.38
62779;BME280;48821;48.796;2.396;2023-02-21T03:46:50;101998.16;;;6.22;64.42
62779;BME280;48821;48.796;2.396;2023-02-21T03:48:02;101993.78;;;6.21;64.41
62779;BME280;48821;48.796;2.396;2023-02-21T03:49:14;101993.78;;;6.21;64.31
62779;BME280;48821;48.796;2.396;2023-02-21T03:50:26;101996.41;;;6.19;64.45
62779;BME280;48821;48.796;2.396;2023-02-21T03:51:38;101985.97;;;6.19;64.44
62779;BME280;48821;48.796;2.396;2023-02-21T03:52:50;101992.06;;;6.19;64.52
62779;BME280;48821;48.796;2.396;2023-02-21T03:54:02;101989.41;;;6.18;64.23
62779;BME280;48821;48.796;2.396;2023-02-21T03:55:14;101979.84;;;6.18;64.28
62779;BME280;48821;48.796;2.396;2023-02-21T03:56:25;101978.09;;;6.17;64.05
62779;BME280;48821;48.796;2.396;2023-02-21T03:57:37;101980.72;;;6.16;64.40
62779;BME280;48821;48.796;2.396;2023-02-21T03:58:49;101978.97;;;6.16;64.08
62779;BME280;48821;48.796;2.396;2023-02-21T04:00:01;101975.50;;;6.16;64.28
62779;BME280;48821;48.796;2.396;2023-02-21T04:01:14;101978.09;;;6.14;64.41
62779;BME280;48821;48.796;2.396;2023-02-21T04:02:26;101970.28;;;6.14;64.32
62779;BME280;48821;48.796;2.396;2023-02-21T04:03:38;101972.84;;;6.13;64.36
62779;BME280;48821;48.796;2.396;2023-02-21T04:04:50;101976.34;;;6.13;64.51
62779;BME280;48821;48.796;2.396;2023-02-21T04:06:02;101974.63;;;6.12;64.31
62779;BME280;48821;48.796;2.396;2023-02-21T04:07:16;101972.84;;;6.13;64.14
62779;BME280;48821;48.796;2.396;2023-02-21T04:08:27;101977.19;;;6.11;64.60
62779;BME280;48821;48.796;2.396;2023-02-21T04:09:39;101969.38;;;6.11;64.39
62779;BME280;48821;48.796;2.396;2023-02-21T04:10:51;101971.97;;;6.11;64.17
62779;BME280;48821;48.796;2.396;2023-02-21T04:12:03;101971.97;;;6.09;64.64
62779;BME280;48821;48.796;2.396;2023-02-21T04:13:15;101971.09;;;6.08;64.50
62779;BME280;48821;48.796;2.396;2023-02-21T04:14:27;101970.22;;;6.08;64.49
62779;BME280;48821;48.796;2.396;2023-02-21T04:15:39;101967.56;;;6.06;64.50
62779;BME280;48821;48.796;2.396;2023-02-21T04:16:51;101966.69;;;6.06;64.73
62779;BME280;48821;48.796;2.396;2023-02-21T04:18:03;101970.19;;;6.06;64.31
62779;BME280;48821;48.796;2.396;2023-02-21T04:19:15;101973.66;;;6.05;64.55
62779;BME280;48821;48.796;2.396;2023-02-21T04:20:27;101970.16;;;6.03;64.55
62779;BME280;48821;48.796;2.396;2023-02-21T04:21:39;101972.78;;;6.03;64.57
62779;BME280;48821;48.796;2.396;2023-02-21T04:22:51;101975.38;;;6.03;64.37
62779;BME280;48821;48.796;2.396;2023-02-21T04:24:03;101970.16;;;6.03;64.34
62779;BME280;48821;48.796;2.396;2023-02-21T04:25:15;101984.09;;;6.02;64.51
62779;BME280;48821;48.796;2.396;2023-02-21T04:26:27;101973.66;;;6.02;64.37
62779;BME280;48821;48.796;2.396;2023-02-21T04:27:40;101984.94;;;6.01;64.31
62779;BME280;48821;48.796;2.396;2023-02-21T04:28:52;101975.34;;;6.00;64.43
62779;BME280;48821;48.796;2.396;2023-02-21T04:30:04;101974.50;;;6.00;64.48
62779;BME280;48821;48.796;2.396;2023-02-21T04:31:16;101985.78;;;6.00;64.52
62779;BME280;48821;48.796;2.396;2023-02-21T04:32:27;101979.69;;;5.98;64.44
62779;BME280;48821;48.796;2.396;2023-02-21T04:33:39;101982.31;;;5.98;64.50
62779;BME280;48821;48.796;2.396;2023-02-21T04:34:51;101969.25;;;5.98;64.18
62779;BME280;48821;48.796;2.396;2023-02-21T04:36:03;101966.66;;;5.96;64.65
62779;BME280;48821;48.796;2.396;2023-02-21T04:37:14;101975.34;;;5.97;64.52
62779;BME280;48821;48.796;2.396;2023-02-21T04:38:26;101974.47;;;5.96;64.35
62779;BME280;48821;48.796;2.396;2023-02-21T04:39:38;101967.50;;;5.95;64.50
62779;BME280;48821;48.796;2.396;2023-02-21T04:40:50;101977.94;;;5.95;64.24
62779;BME280;48821;48.796;2.396;2023-02-21T04:42:02;101977.09;;;5.95;64.39
62779;BME280;48821;48.796;2.396;2023-02-21T04:43:14;101982.31;;;5.95;64.30
62779;BME280;48821;48.796;2.396;2023-02-21T04:44:26;101983.16;;;5.94;64.71
62779;BME280;48821;48.796;2.396;2023-02-21T04:45:38;101982.31;;;5.95;64.22
62779;BME280;48821;48.796;2.396;2023-02-21T04:46:50;101977.06;;;5.92;64.56
62779;BME280;48821;48.796;2.396;2023-02-21T04:48:02;101973.56;;;5.93;64.60
62779;BME280;48821;48.796;2.396;2023-02-21T04:49:14;101975.31;;;5.91;64.41
62779;BME280;48821;48.796;2.396;2023-02-21T04:50:26;101981.41;;;5.91;64.62
62779;BME280;48821;48.796;2.396;2023-02-21T04:51:38;101977.91;;;5.91;64.43
62779;BME280;48821;48.796;2.396;2023-02-21T04:52:50;101977.91;;;5.89;64.29
62779;BME280;48821;48.796;2.396;2023-02-21T04:54:03;101982.25;;;5.89;64.59
62779;BME280;48821;48.796;2.396;2023-02-21T04:55:15;101979.63;;;5.89;64.58
62779;BME280;48821;48.796;2.396;2023-02-21T04:56:27;101977.03;;;5.87;64.26
62779;BME280;48821;48.796;2.396;2023-02-21T04:57:39;101983.13;;;5.88;64.59
62779;BME280;48821;48.796;2.396;2023-02-21T04:58:51;101978.75;;;5.87;64.69
62779;BME280;48821;48.796;2.396;2023-02-21T05:00:03;101985.75;;;5.88;64.21
62779;BME280;48821;48.796;2.396;2023-02-21T05:01:18;101983.09;;;5.86;64.29
62779;BME280;48821;48.796;2.396;2023-02-21T05:02:30;101982.22;;;5.85;64.64
62779;BME280;48821;48.796;2.396;2023-02-21T05:03:42;101980.50;;;5.84;64.35
62779;BME280;48821;48.796;2.396;2023-02-21T05:04:54;101978.72;;;5.83;64.48
62779;BME280;48821;48.796;2.396;2023-02-21T05:06:06;101983.94;;;5.83;64.18
62779;BME280;48821;48.796;2.396;2023-02-21T05:07:18;101980.47;;;5.83;64.54
62779;BME280;48821;48.796;2.396;2023-02-21T05:08:30;101982.22;;;5.82;64.75
62779;BME280;48821;48.796;2.396;2023-02-21T05:09:41;101985.69;;;5.81;64.53
62779;BME280;48821;48.796;2.396;2023-02-21T05:10:53;101986.56;;;5.82;64.66
62779;BME280;48821;48.796;2.396;2023-02-21T05:12:05;101987.41;;;5.81;64.34
62779;BME280;48821;48.796;2.396;2023-02-21T05:13:21;101990.91;;;5.80;64.30
62779;BME280;48821;48.796;2.396;2023-02-21T05:14:32;101987.41;;;5.79;64.58
62779;BME280;48821;48.796;2.396;2023-02-21T05:15:44;101987.41;;;5.79;64.36
62779;BME280;48821;48.796;2.396;2023-02-21T05:16:56;101986.53;;;5.79;64.47
62779;BME280;48821;48.796;2.396;2023-02-21T05:18:08;101984.81;;;5.78;64.75
62779;BME280;48821;48.796;2.396;2023-02-21T05:19:20;101977.81;;;5.77;64.39
62779;BME280;48821;48.796;2.396;2023-02-21T05:20:36;101977.81;;;5.75;64.43
62779;BME280;48821;48.796;2.396;2023-02-21T05:21:48;101978.69;;;5.76;64.81
62779;BME280;48821;48.796;2.396;2023-02-21T05:22:59;101976.94;;;5.74;64.74
62779;BME280;48821;48.796;2.396;2023-02-21T05:24:11;101979.56;;;5.74;64.66
62779;BME280;48821;48.796;2.396;2023-02-21T05:25:23;101978.69;;;5.74;64.75
62779;BME280;48821;48.796;2.396;2023-02-21T05:26:36;101978.69;;;5.74;64.45
62779;BME280;48821;48.796;2.396;2023-02-21T05:27:50;101980.41;;;5.72;64.40
62779;BME280;48821;48.796;2.396;2023-02-21T05:29:02;101975.19;;;5.72;64.38
62779;BME280;48821;48.796;2.396;2023-02-21T05:30:15;101976.91;;;5.71;64.36
62779;BME280;48821;48.796;2.396;2023-02-21T05:31:26;101983.84;;;5.71;64.65
62779;BME280;48821;48.796;2.396;2023-02-21T05:32:38;101969.94;;;5.69;64.71
62779;BME280;48821;48.796;2.396;2023-02-21T05:33:49;101975.16;;;5.69;64.48
62779;BME280;48821;48.796;2.396;2023-02-21T05:35:01;101969.06;;;5.68;64.51
62779;BME280;48821;48.796;2.396;2023-02-21T05:36:13;101974.28;;;5.68;64.70
62779;BME280;48821;48.796;2.396;2023-02-21T05:37:25;101972.53;;;5.69;64.38
62779;BME280;48821;48.796;2.396;2023-02-21T05:38:47;101966.44;;;5.67;64.50
62779;BME280;48821;48.796;2.396;2023-02-21T05:39:58;101967.28;;;5.66;64.54
62779;BME280;48821;48.796;2.396;2023-02-21T05:41:10;101964.69;;;5.66;64.68
62779;BME280;48821;48.796;2.396;2023-02-21T05:42:22;101962.97;;;5.65;64.54
62779;BME280;48821;48.796;2.396;2023-02-21T05:43:34;101965.56;;;5.65;64.59
62779;BME280;48821;48.796;2.396;2023-02-21T05:44:46;101960.31;;;5.63;64.62
62779;BME280;48821;48.796;2.396;2023-02-21T05:45:58;101966.41;;;5.63;64.68
62779;BME280;48821;48.796;2.396;2023-02-21T05:47:10;101957.72;;;5.61;64.77
62779;BME280;48821;48.796;2.396;2023-02-21T05:48:22;101960.31;;;5.61;64.52
62779;BME280;48821;48.796;2.396;2023-02-21T05:49:34;101956.81;;;5.61;64.69
62779;BME280;48821;48.796;2.396;2023-02-21T05:50:48;101955.97;;;5.60;64.64
62779;BME280;48821;48.796;2.396;2023-02-21T05:52:00;101956.81;;;5.59;64.89
62779;BME280;48821;48.796;2.396;2023-02-21T05:53:12;101949.88;;;5.60;64.75
62779;BME280;48821;48.796;2.396;2023-02-21T05:54:24;101951.59;;;5.59;64.89
62779;BME280;48821;48.796;2.396;2023-02-21T05:55:36;101950.72;;;5.57;64.26
62779;BME280;48821;48.796;2.396;2023-02-21T05:56:50;101952.47;;;5.58;64.88
62779;BME280;48821;48.796;2.396;2023-02-21T05:58:02;101950.72;;;5.57;64.36
62779;BME280;48821;48.796;2.396;2023-02-21T05:59:16;101949.84;;;5.57;64.92
62779;BME280;48821;48.796;2.396;2023-02-21T06:00:29;101948.13;;;5.57;64.87
62779;BME280;48821;48.796;2.396;2023-02-21T06:01:40;101946.38;;;5.56;64.75
62779;BME280;48821;48.796;2.396;2023-02-21T06:02:53;101946.38;;;5.56;64.49
62779;BME280;48821;48.796;2.396;2023-02-21T06:04:04;101942.88;;;5.56;64.38
62779;BME280;48821;48.796;2.396;2023-02-21T06:05:18;101948.97;;;5.56;64.74
62779;BME280;48821;48.796;2.396;2023-02-21T06:06:29;101946.38;;;5.55;64.56
62779;BME280;48821;48.796;2.396;2023-02-21T06:07:41;101944.63;;;5.55;64.40
62779;BME280;48821;48.796;2.396;2023-02-21T06:08:53;101942.00;;;5.54;64.64
62779;BME280;48821;48.796;2.396;2023-02-21T06:10:05;101943.75;;;5.53;64.64
62779;BME280;48821;48.796;2.396;2023-02-21T06:11:23;101939.38;;;5.52;64.75
62779;BME280;48821;48.796;2.396;2023-02-21T06:12:35;101942.00;;;5.52;64.52
62779;BME280;48821;48.796;2.396;2023-02-21T06:13:49;101944.59;;;5.50;64.59
62779;BME280;48821;48.796;2.396;2023-02-21T06:15:02;101939.38;;;5.52;64.53
62779;BME280;48821;48.796;2.396;2023-02-21T06:16:17;101935.91;;;5.50;64.35
62779;BME280;48821;48.796;2.396;2023-02-21T06:17:29;101943.72;;;5.50;64.87
62779;BME280;48821;48.796;2.396;2023-02-21T06:18:42;101944.56;;;5.49;64.31
62779;BME280;48821;48.796;2.396;2023-02-21T06:19:55;101941.09;;;5.48;64.64
62779;BME280;48821;48.796;2.396;2023-02-21T06:21:07;101941.97;;;5.49;64.99
62779;BME280;48821;48.796;2.396;2023-02-21T06:22:19;101936.75;;;5.47;64.77
62779;BME280;48821;48.796;2.396;2023-02-21T06:23:31;101933.25;;;5.47;64.90
62779;BME280;48821;48.796;2.396;2023-02-21T06:24:45;101934.09;;;5.46;64.42
62779;BME280;48821;48.796;2.396;2023-02-21T06:25:57;101935.88;;;5.45;64.72
62779;BME280;48821;48.796;2.396;2023-02-21T06:27:09;101931.50;;;5.44;64.71
62779;BME280;48821;48.796;2.396;2023-02-21T06:28:21;101928.00;;;5.44;64.59
62779;BME280;48821;48.796;2.396;2023-02-21T06:29:37;101928.00;;;5.44;64.88
62779;BME280;48821;48.796;2.396;2023-02-21T06:30:49;101917.56;;;5.44;64.57
62779;BME280;48821;48.796;2.396;2023-02-21T06:32:00;101920.19;;;5.44;64.68
62779;BME280;48821;48.796;2.396;2023-02-21T06:33:12;101914.97;;;5.42;64.75
62779;BME280;48821;48.796;2.396;2023-02-21T06:34:24;101915.84;;;5.43;64.91
62779;BME280;48821;48.796;2.396;2023-02-21T06:35:36;101914.09;;;5.42;64.60
62779;BME280;48821;48.796;2.396;2023-02-21T06:36:52;101909.75;;;5.42;64.57
62779;BME280;48821;48.796;2.396;2023-02-21T06:38:03;101907.16;;;5.40;65.00
62779;BME280;48821;48.796;2.396;2023-02-21T06:39:15;101908.88;;;5.40;64.53
62779;BME280;48821;48.796;2.396;2023-02-21T06:40:27;101909.75;;;5.40;64.58
62779;BME280;48821;48.796;2.396;2023-02-21T06:41:39;101918.44;;;5.39;64.37
62779;BME280;48821;48.796;2.396;2023-02-21T06:42:51;101906.25;;;5.38;65.05
62779;BME280;48821;48.796;2.396;2023-02-21T06:44:03;101909.72;;;5.39;65.13
62779;BME280;48821;48.796;2.396;2023-02-21T06:45:15;101905.38;;;5.38;64.84
62779;BME280;48821;48.796;2.396;2023-02-21T06:46:28;101904.50;;;5.37;64.86
62779;BME280;48821;48.796;2.396;2023-02-21T06:47:40;101904.50;;;5.37;65.08
62779;BME280;48821;48.796;2.396;2023-02-21T06:48:52;101909.72;;;5.36;64.70
62779;BME280;48821;48.796;2.396;2023-02-21T06:50:04;101907.97;;;5.35;64.67
62779;BME280;48821;48.796;2.396;2023-02-21T06:51:15;101905.34;;;5.36;64.56
62779;BME280;48821;48.796;2.396;2023-02-21T06:52:29;101901.03;;;5.35;64.97
62779;BME280;48821;48.796;2.396;2023-02-21T06:53:41;101897.53;;;5.35;64.73
62779;BME280;48821;48.796;2.396;2023-02-21T06:54:53;101900.13;;;5.36;64.67
62779;BME280;48821;48.796;2.396;2023-02-21T06:56:05;101896.69;;;5.36;64.46
62779;BME280;48821;48.796;2.396;2023-02-21T06:57:16;101896.69;;;5.36;64.77
62779;BME280;48821;48.796;2.396;2023-02-21T06:58:28;101893.19;;;5.35;64.66
62779;BME280;48821;48.796;2.396;2023-02-21T06:59:40;101900.13;;;5.35;64.86
62779;BME280;48821;48.796;2.396;2023-02-21T07:00:52;101894.03;;;5.34;65.08
62779;BME280;48821;48.796;2.396;2023-02-21T07:02:04;101897.53;;;5.35;64.86
62779;BME280;48821;48.796;2.396;2023-02-21T07:03:16;101893.16;;;5.34;64.81
62779;BME280;48821;48.796;2.396;2023-02-21T07:04:28;101896.66;;;5.34;64.98
62779;BME280;48821;48.796;2.396;2023-02-21T07:05:39;101897.53;;;5.35;64.96
62779;BME280;48821;48.796;2.396;2023-02-21T07:06:52;101901.00;;;5.34;64.47
62779;BME280;48821;48.796;2.396;2023-02-21T07:08:04;101895.78;;;5.34;64.94
62779;BME280;48821;48.796;2.396;2023-02-21T07:09:14;101896.66;;;5.34;65.01
62779;BME280;48821;48.796;2.396;2023-02-21T07:10:29;101891.44;;;5.34;64.96
62779;BME280;48821;48.796;2.396;2023-02-21T07:11:40;101892.31;;;5.33;65.11
62779;BME280;48821;48.796;2.396;2023-02-21T07:12:52;101891.44;;;5.34;64.79
62779;BME280;48821;48.796;2.396;2023-02-21T07:14:04;101893.16;;;5.34;65.63
62779;BME280;48821;48.796;2.396;2023-02-21T07:15:16;101896.66;;;5.34;64.87
62779;BME280;48821;48.796;2.396;2023-02-21T07:16:28;101899.25;;;5.34;65.08
62779;BME280;48821;48.796;2.396;2023-02-21T07:17:40;101901.88;;;5.34;65.16
62779;BME280;48821;48.796;2.396;2023-02-21T07:18:52;101899.25;;;5.34;65.02
62779;BME280;48821;48.796;2.396;2023-02-21T07:20:05;101899.25;;;5.34;65.10